createdAt,value
2019-04-14T00:01:54.498Z,85.34
2019-04-14T00:04:31.353Z,85.26
2019-04-14T00:06:59.151Z,85.24
2019-04-14T00:09:27.310Z,85.36
2019-04-14T00:11:54.787Z,85.57
2019-04-14T00:14:22.853Z,85.52
2019-04-14T00:16:49.632Z,85.44
2019-04-14T00:19:17.433Z,85.58
2019-04-14T00:21:45.362Z,85.57
2019-04-14T00:24:12.334Z,85.29
2019-04-14T00:26:40.213Z,85.08
2019-04-14T00:29:07.008Z,85.00
2019-04-14T00:31:34.919Z,85.01
2019-04-14T00:34:05.662Z,85.17
2019-04-14T00:37:01.290Z,85.26
2019-04-14T00:39:31.967Z,85.43
2019-04-14T00:42:08.605Z,85.54
2019-04-14T00:44:47.352Z,85.59
2019-04-14T00:47:18.053Z,85.34
2019-04-14T00:49:44.768Z,85.55
2019-04-14T00:52:12.456Z,85.67
2019-04-14T00:54:41.403Z,85.44
2019-04-14T00:57:09.343Z,85.38
2019-04-14T00:59:36.142Z,85.17
2019-04-14T01:02:05.695Z,85.02
2019-04-14T01:04:33.468Z,85.03
2019-04-14T01:07:00.526Z,85.22
2019-04-14T01:09:28.343Z,85.45
2019-04-14T01:11:55.348Z,85.48
2019-04-14T01:14:21.958Z,85.56
2019-04-14T01:16:49.491Z,85.32
2019-04-14T01:19:17.637Z,85.32
2019-04-14T01:21:45.665Z,85.32
2019-04-14T01:24:12.616Z,85.61
2019-04-14T01:26:42.749Z,85.76
2019-04-14T01:29:10.149Z,85.68
2019-04-14T01:31:40.551Z,85.89
2019-04-14T01:34:08.685Z,85.99
2019-04-14T01:36:36.653Z,85.66
2019-04-14T01:39:05.077Z,85.75
2019-04-14T01:41:34.712Z,85.75
2019-04-14T01:44:02.509Z,85.78
2019-04-14T01:46:32.760Z,85.78
2019-04-14T01:48:59.137Z,85.78
2019-04-14T01:51:39.941Z,85.91
2019-04-14T01:54:34.515Z,85.81
2019-04-14T01:57:20.107Z,85.98
2019-04-14T01:59:48.169Z,86.09
2019-04-14T02:02:18.788Z,86.10
2019-04-14T02:04:46.396Z,86.03
2019-04-14T02:07:14.478Z,85.87
2019-04-14T02:09:42.502Z,85.94
2019-04-14T02:12:10.579Z,86.04
2019-04-14T02:14:38.765Z,86.01
2019-04-14T02:17:07.624Z,86.07
2019-04-14T02:19:39.293Z,85.99
2019-04-14T02:22:07.345Z,86.05
2019-04-14T02:24:35.250Z,86.20
2019-04-14T02:27:07.631Z,86.40
2019-04-14T02:29:36.116Z,86.34
2019-04-14T02:32:32.837Z,86.11
2019-04-14T02:35:08.565Z,85.93
2019-04-14T02:37:26.695Z,85.87
2019-04-14T02:44:55.356Z,86.04
2019-04-14T02:49:50.755Z,86.50
2019-04-14T02:52:20.493Z,86.57
2019-04-14T02:57:30.928Z,87.03
2019-04-14T03:02:23.208Z,87.32
2019-04-14T03:04:45.482Z,87.32
2019-04-14T03:07:18.095Z,87.40
2019-04-14T03:09:42.190Z,87.34
2019-04-14T03:12:09.672Z,87.24
2019-04-14T03:14:40.170Z,87.22
2019-04-14T03:20:15.302Z,87.32
2019-04-14T03:23:08.593Z,87.49
2019-04-14T03:25:15.245Z,87.36
2019-04-14T03:27:59.183Z,87.48
2019-04-14T03:50:28.878Z,87.71
2019-04-14T03:55:16.283Z,88.11
2019-04-14T03:57:30.041Z,88.36
2019-04-14T03:59:58.482Z,88.61
2019-04-14T04:02:27.208Z,88.93
2019-04-14T04:04:53.802Z,89.14
2019-04-14T04:07:21.415Z,89.30
2019-04-14T04:12:44.365Z,89.50
2019-04-14T04:15:11.197Z,89.67
2019-04-14T04:17:45.186Z,89.75
2019-04-14T04:20:21.901Z,90.00
2019-04-14T04:23:07.413Z,90.21
2019-04-14T04:25:44.621Z,90.59
2019-04-14T04:28:32.012Z,90.44
2019-04-14T04:31:22.627Z,90.47
2019-04-14T04:33:56.920Z,90.48
2019-04-14T04:36:35.626Z,90.63
2019-04-14T04:39:17.095Z,90.73
2019-04-14T04:41:44.981Z,90.88
2019-04-14T04:44:11.737Z,90.74
2019-04-14T04:46:39.510Z,90.69
2019-04-14T04:49:12.556Z,90.74
2019-04-14T04:51:35.704Z,90.75
2019-04-14T04:54:03.798Z,90.90
2019-04-14T04:56:31.842Z,90.99
2019-04-14T04:58:58.992Z,91.07
2019-04-14T05:01:25.763Z,91.15
2019-04-14T05:03:53.313Z,91.16
2019-04-14T05:07:12.260Z,91.19
2019-04-14T05:10:08.925Z,91.22
2019-04-14T05:12:43.500Z,91.26
2019-04-14T05:15:36.125Z,91.22
2019-04-14T05:18:02.923Z,91.24
2019-04-14T05:20:29.624Z,91.27
2019-04-14T05:22:57.246Z,91.29
2019-04-14T05:25:25.345Z,91.35
2019-04-14T05:27:53.703Z,91.32
2019-04-14T05:30:21.772Z,91.35
2019-04-14T05:32:48.649Z,91.29
2019-04-14T05:35:16.204Z,91.25
2019-04-14T05:38:03.841Z,91.21
2019-04-14T05:40:32.156Z,90.88
2019-04-14T05:43:00.172Z,90.29
2019-04-14T05:45:27.046Z,90.19
2019-04-14T05:47:54.351Z,89.90
2019-04-14T05:50:21.221Z,89.46
2019-04-14T05:52:47.953Z,88.98
2019-04-14T05:55:15.568Z,88.40
2019-04-14T05:57:43.784Z,87.78
2019-04-14T06:00:14.582Z,87.61
2019-04-14T06:02:41.929Z,86.61
2019-04-14T06:05:10.026Z,85.71
2019-04-14T06:07:37.708Z,85.41
2019-04-14T06:10:05.304Z,85.30
2019-04-14T06:12:31.971Z,84.47
2019-04-14T06:14:58.671Z,82.48
2019-04-14T06:17:25.447Z,82.70
2019-04-14T06:19:52.060Z,82.67
2019-04-14T06:22:18.745Z,82.07
2019-04-14T06:24:45.452Z,80.89
2019-04-14T06:27:12.224Z,80.32
2019-04-14T06:29:39.007Z,80.60
2019-04-14T06:32:40.442Z,79.15
2019-04-14T06:35:39.253Z,80.26
2019-04-14T06:38:09.020Z,75.27
2019-04-14T06:40:46.103Z,67.57
2019-04-14T06:43:12.785Z,65.98
2019-04-14T06:45:39.568Z,59.79
2019-04-14T06:48:06.336Z,56.55
2019-04-14T06:50:33.137Z,53.71
2019-04-14T06:52:59.745Z,52.12
2019-04-14T06:55:26.345Z,51.33
2019-04-14T06:57:53.177Z,51.22
2019-04-14T07:00:19.966Z,49.64
2019-04-14T07:02:48.086Z,48.90
2019-04-14T07:05:14.945Z,49.52
2019-04-14T07:07:41.711Z,47.31
2019-04-14T07:10:35.677Z,49.16
2019-04-14T07:13:02.453Z,49.56
2019-04-14T07:15:29.250Z,46.69
2019-04-14T07:17:55.810Z,43.68
2019-04-14T07:20:42.264Z,39.95
2019-04-14T07:23:09.151Z,39.51
2019-04-14T07:25:35.787Z,38.10
2019-04-14T07:28:02.598Z,39.26
2019-04-14T07:30:48.932Z,38.09
2019-04-14T07:33:31.509Z,37.43
2019-04-14T07:36:16.446Z,44.76
2019-04-14T07:39:18.025Z,44.86
2019-04-14T07:41:50.939Z,44.04
2019-04-14T07:44:49.238Z,43.34
2019-04-14T07:47:25.170Z,45.99
2019-04-14T07:50:17.378Z,41.87
2019-04-14T07:53:06.773Z,43.32
2019-04-14T07:55:40.003Z,42.17
2019-04-14T07:58:13.985Z,40.00
2019-04-14T08:00:47.616Z,36.57
2019-04-14T08:03:24.265Z,36.94
2019-04-14T08:05:50.986Z,34.04
2019-04-14T08:08:17.687Z,34.25
2019-04-14T08:10:44.459Z,32.16
2019-04-14T08:13:11.222Z,29.48
2019-04-14T08:15:39.237Z,30.61
2019-04-14T08:18:06.007Z,28.99
2019-04-14T08:20:33.697Z,29.25
2019-04-14T08:23:00.370Z,28.59
2019-04-14T08:25:27.180Z,28.47
2019-04-14T08:27:53.947Z,29.96
2019-04-14T08:30:20.670Z,30.19
2019-04-14T08:32:47.751Z,30.70
2019-04-14T08:35:14.736Z,31.94
2019-04-14T08:37:41.407Z,32.70
2019-04-14T08:40:08.599Z,31.13
2019-04-14T08:42:41.538Z,29.81
2019-04-14T08:45:31.627Z,28.99
2019-04-14T08:48:09.656Z,28.65
2019-04-14T08:50:54.585Z,25.65
2019-04-14T08:53:25.254Z,26.39
2019-04-14T08:56:05.641Z,26.32
2019-04-14T08:59:03.628Z,26.22
2019-04-14T09:01:48.848Z,25.21
2019-04-14T09:04:53.094Z,25.80
2019-04-14T09:07:32.243Z,25.97
2019-04-14T09:10:03.778Z,27.53
2019-04-14T09:12:33.262Z,28.47
2019-04-14T09:15:00.030Z,29.60
2019-04-14T09:17:28.769Z,30.10
2019-04-14T09:19:55.509Z,32.53
2019-04-14T09:22:22.178Z,30.19
2019-04-14T09:24:48.857Z,31.93
2019-04-14T09:27:15.548Z,30.27
2019-04-14T09:29:42.124Z,29.90
2019-04-14T09:32:10.086Z,31.82
2019-04-14T09:34:36.883Z,30.57
2019-04-14T09:37:03.718Z,33.08
2019-04-14T09:39:30.291Z,31.26
2019-04-14T09:41:57.371Z,27.22
2019-04-14T09:44:24.188Z,29.71
2019-04-14T09:46:50.864Z,27.53
2019-04-14T09:49:17.640Z,28.58
2019-04-14T09:51:44.422Z,32.66
2019-04-14T09:54:11.221Z,35.94
2019-04-14T09:56:37.816Z,36.03
2019-04-14T09:59:04.589Z,35.38
2019-04-14T10:01:31.375Z,34.91
2019-04-14T10:03:58.041Z,34.34
2019-04-14T10:06:24.755Z,32.66
2019-04-14T10:08:51.637Z,27.06
2019-04-14T10:11:18.532Z,27.55
2019-04-14T10:13:45.189Z,29.13
2019-04-14T10:16:11.883Z,28.55
2019-04-14T10:18:38.452Z,26.27
2019-04-14T10:21:16.694Z,28.86
2019-04-14T10:23:33.622Z,28.50
2019-04-14T10:26:00.329Z,28.83
2019-04-14T10:28:27.127Z,29.78
2019-04-14T10:30:53.798Z,30.04
2019-04-14T10:33:20.395Z,34.42
2019-04-14T10:35:47.067Z,33.34
2019-04-14T10:38:13.766Z,33.31
2019-04-14T10:40:40.431Z,33.55
2019-04-14T10:43:07.119Z,34.99
2019-04-14T10:45:33.798Z,35.55
2019-04-14T10:48:01.434Z,36.09
2019-04-14T10:50:31.109Z,35.10
2019-04-14T10:52:56.725Z,33.84
2019-04-14T10:55:23.489Z,35.55
2019-04-14T10:57:50.172Z,38.46
2019-04-14T11:00:17.801Z,38.77
2019-04-14T11:02:44.436Z,44.05
2019-04-14T11:05:11.226Z,45.62
2019-04-14T11:07:37.968Z,47.04
2019-04-14T11:10:05.264Z,45.50
2019-04-14T11:12:32.236Z,46.00
2019-04-14T11:14:58.832Z,47.11
2019-04-14T11:17:25.404Z,47.59
2019-04-14T11:19:52.188Z,49.46
2019-04-14T11:22:19.084Z,49.19
2019-04-14T11:24:45.861Z,48.91
2019-04-14T11:27:12.546Z,50.45
2019-04-14T11:29:39.220Z,49.05
2019-04-14T11:32:43.416Z,49.15
2019-04-14T11:35:35.313Z,49.12
2019-04-14T11:38:30.380Z,49.32
2019-04-14T11:40:58.830Z,49.70
2019-04-14T11:43:25.644Z,49.55
2019-04-14T11:45:52.418Z,47.99
2019-04-14T11:48:19.215Z,46.94
2019-04-14T11:50:45.992Z,47.28
2019-04-14T11:53:12.714Z,47.18
2019-04-14T11:55:39.385Z,47.53
2019-04-14T11:58:06.180Z,46.61
2019-04-14T12:01:01.668Z,46.78
2019-04-14T12:03:38.251Z,48.16
2019-04-14T12:06:27.502Z,47.62
2019-04-14T12:09:19.735Z,48.05
2019-04-14T12:11:46.397Z,49.35
2019-04-14T12:14:13.184Z,49.33
2019-04-14T12:16:40.207Z,51.01
2019-04-14T12:19:06.895Z,51.75
2019-04-14T12:21:33.565Z,52.14
2019-04-14T12:24:00.261Z,52.64
2019-04-14T12:26:27.052Z,51.31
2019-04-14T12:28:53.784Z,50.62
2019-04-14T12:31:21.768Z,51.96
2019-04-14T12:33:48.671Z,52.54
2019-04-14T12:36:15.387Z,52.35
2019-04-14T12:38:42.166Z,54.03
2019-04-14T12:41:13.108Z,54.63
2019-04-14T12:44:08.419Z,54.83
2019-04-14T12:46:57.530Z,54.49
2019-04-14T12:49:28.763Z,54.18
2019-04-14T12:52:21.082Z,53.77
2019-04-14T12:54:42.522Z,52.23
2019-04-14T12:57:09.307Z,53.58
2019-04-14T12:59:36.094Z,53.56
2019-04-14T13:02:22.701Z,53.25
2019-04-14T13:04:49.496Z,53.32
2019-04-14T13:07:16.172Z,52.84
2019-04-14T13:09:43.165Z,55.25
2019-04-14T13:12:10.416Z,54.63
2019-04-14T13:14:38.520Z,57.25
2019-04-14T13:17:05.203Z,57.39
2019-04-14T13:19:31.989Z,60.45
2019-04-14T13:21:58.754Z,60.48
2019-04-14T13:24:25.543Z,61.64
2019-04-14T13:26:52.313Z,63.68
2019-04-14T13:29:19.109Z,66.51
2019-04-14T13:31:46.491Z,65.74
2019-04-14T13:34:13.274Z,65.66
2019-04-14T13:36:40.027Z,69.73
2019-04-14T13:39:06.804Z,67.15
2019-04-14T13:41:33.899Z,68.56
2019-04-14T13:44:00.601Z,66.88
2019-04-14T13:46:27.284Z,67.50
2019-04-14T13:48:53.975Z,71.79
2019-04-14T13:51:20.642Z,71.63
2019-04-14T13:53:47.361Z,71.37
2019-04-14T13:56:14.127Z,71.55
2019-04-14T13:58:40.983Z,74.31
2019-04-14T14:01:07.773Z,72.77
2019-04-14T14:03:34.556Z,75.86
2019-04-14T14:06:01.330Z,74.79
2019-04-14T14:08:28.090Z,74.82
2019-04-14T14:10:59.319Z,74.68
2019-04-14T14:13:32.424Z,74.02
2019-04-14T14:19:11.952Z,77.18
2019-04-14T14:21:58.378Z,74.76
2019-04-14T14:24:29.047Z,75.92
2019-04-14T14:26:55.734Z,73.30
2019-04-14T14:29:22.450Z,72.95
2019-04-14T14:31:49.522Z,72.61
2019-04-14T14:34:16.213Z,73.26
2019-04-14T14:36:42.934Z,75.23
2019-04-14T14:39:10.013Z,76.38
2019-04-14T14:41:36.673Z,77.43
2019-04-14T14:44:03.451Z,75.03
2019-04-14T14:46:48.324Z,76.80
2019-04-14T14:49:40.563Z,77.71
2019-04-14T14:52:09.380Z,79.33
2019-04-14T14:54:36.187Z,77.75
2019-04-14T14:57:03.051Z,77.75
2019-04-14T14:59:29.873Z,76.64
2019-04-14T15:01:56.430Z,78.37
2019-04-14T15:04:23.015Z,77.05
2019-04-14T15:06:49.695Z,77.78
2019-04-14T15:09:16.387Z,79.98
2019-04-14T15:11:43.162Z,78.29
2019-04-14T15:14:09.861Z,77.91
2019-04-14T15:16:36.665Z,80.06
2019-04-14T15:19:03.508Z,79.53
2019-04-14T15:21:30.298Z,78.59
2019-04-14T15:23:57.031Z,79.26
2019-04-14T15:26:23.826Z,78.59
2019-04-14T15:28:50.599Z,80.29
2019-04-14T15:31:17.299Z,81.30
2019-04-14T15:33:44.104Z,79.34
2019-04-14T15:36:10.908Z,80.82
2019-04-14T15:38:37.610Z,79.88
2019-04-14T15:41:04.410Z,80.45
2019-04-14T15:43:31.087Z,78.77
2019-04-14T15:45:57.871Z,78.15
2019-04-14T15:48:24.600Z,79.54
2019-04-14T15:50:51.387Z,81.54
2019-04-14T15:53:18.163Z,80.03
2019-04-14T15:55:44.988Z,79.17
2019-04-14T15:58:36.284Z,79.03
2019-04-14T16:01:22.440Z,77.28
2019-04-14T16:03:53.926Z,76.06
2019-04-14T16:06:42.194Z,79.33
2019-04-14T16:09:18.445Z,79.25
2019-04-14T16:12:04.785Z,78.97
2019-04-14T16:14:49.739Z,81.15
2019-04-14T16:17:34.679Z,80.88
2019-04-14T16:20:04.207Z,79.96
2019-04-14T16:22:30.898Z,80.01
2019-04-14T16:24:57.497Z,81.50
2019-04-14T16:27:30.725Z,79.80
2019-04-14T16:30:17.171Z,81.50
2019-04-14T16:32:55.278Z,81.45
2019-04-14T16:35:25.267Z,82.36
2019-04-14T16:37:52.126Z,81.19
2019-04-14T16:40:18.857Z,82.25
2019-04-14T16:42:45.655Z,82.33
2019-04-14T16:45:33.967Z,82.48
2019-04-14T16:48:00.647Z,82.39
2019-04-14T16:50:27.439Z,83.77
2019-04-14T16:53:12.708Z,83.62
2019-04-14T16:55:47.275Z,83.59
2019-04-14T16:58:28.511Z,84.83
2019-04-14T17:01:00.011Z,85.13
2019-04-14T17:03:26.588Z,83.76
2019-04-14T17:05:53.296Z,83.22
2019-04-14T17:08:19.880Z,84.03
2019-04-14T17:10:46.575Z,84.77
2019-04-14T17:13:13.259Z,83.97
2019-04-14T17:15:58.057Z,85.47
2019-04-14T17:18:56.560Z,85.47
2019-04-14T17:21:52.006Z,84.66
2019-04-14T17:24:53.202Z,84.79
2019-04-14T17:27:34.024Z,84.94
2019-04-14T17:30:16.559Z,85.53
2019-04-14T17:33:09.098Z,84.59
2019-04-14T17:35:55.982Z,85.02
2019-04-14T17:38:48.407Z,85.26
2019-04-14T17:41:26.250Z,85.07
2019-04-14T17:43:59.706Z,85.50
2019-04-14T17:46:45.930Z,85.48
2019-04-14T17:49:38.242Z,85.87
2019-04-14T17:52:23.364Z,86.00
2019-04-14T17:55:02.537Z,85.78
2019-04-14T17:57:47.916Z,85.88
2019-04-14T18:00:23.051Z,86.08
2019-04-14T18:03:12.517Z,86.27
2019-04-14T18:05:58.839Z,86.55
2019-04-14T18:08:45.271Z,86.36
2019-04-14T18:11:30.136Z,86.28
2019-04-14T18:14:10.256Z,85.35
2019-04-14T18:16:56.692Z,85.42
2019-04-14T18:19:53.216Z,85.73
2019-04-14T18:22:20.023Z,86.28
2019-04-14T18:24:46.802Z,86.51
2019-04-14T18:27:13.608Z,86.30
2019-04-14T18:29:45.596Z,86.57
2019-04-14T18:32:22.804Z,86.99
2019-04-14T18:35:15.316Z,86.97
2019-04-14T18:37:59.394Z,86.35
2019-04-14T18:40:34.184Z,86.14
2019-04-14T18:43:06.202Z,86.39
2019-04-14T18:45:42.987Z,86.36
2019-04-14T18:48:28.272Z,86.27
2019-04-14T18:51:20.544Z,86.48
2019-04-14T18:54:05.102Z,86.52
2019-04-14T18:56:54.104Z,86.87
2019-04-14T18:59:31.168Z,87.12
2019-04-14T19:01:58.073Z,87.12
2019-04-14T19:04:24.850Z,86.34
2019-04-14T19:06:51.629Z,86.34
2019-04-14T19:09:18.343Z,86.21
2019-04-14T19:12:06.866Z,86.41
2019-04-14T19:14:35.622Z,86.51
2019-04-14T19:17:07.060Z,85.88
2019-04-14T19:19:35.317Z,86.14
2019-04-14T19:22:02.115Z,86.50
2019-04-14T19:24:28.924Z,86.64
2019-04-14T19:26:55.557Z,86.98
2019-04-14T19:29:22.244Z,86.95
2019-04-14T19:31:48.939Z,86.59
2019-04-14T19:34:15.634Z,86.59
2019-04-14T19:36:42.319Z,87.34
2019-04-14T19:39:09.932Z,87.09
2019-04-14T19:41:36.635Z,87.11
2019-04-14T19:44:03.436Z,87.23
2019-04-14T19:46:30.221Z,86.81
2019-04-14T19:48:56.822Z,86.81
2019-04-14T19:51:23.543Z,86.51
2019-04-14T19:53:50.262Z,86.16
2019-04-14T19:56:16.935Z,86.16
2019-04-14T19:58:43.570Z,85.99
2019-04-14T20:01:10.307Z,86.40
2019-04-14T20:03:56.819Z,86.49
2019-04-14T20:06:23.507Z,86.97
2019-04-14T20:08:50.199Z,86.92
2019-04-14T20:11:36.416Z,87.23
2019-04-14T20:14:03.359Z,87.23
2019-04-14T20:16:49.749Z,87.21
2019-04-14T20:19:39.012Z,87.21
2019-04-14T20:22:24.030Z,86.60
2019-04-14T20:25:03.446Z,86.60
2019-04-14T20:27:33.894Z,86.71
2019-04-14T20:30:42.310Z,87.00
2019-04-14T20:33:09.096Z,87.25
2019-04-14T20:35:35.927Z,87.19
2019-04-14T20:38:02.725Z,87.39
2019-04-14T20:40:29.525Z,87.31
2019-04-14T20:42:56.295Z,86.98
2019-04-14T20:45:22.984Z,87.19
2019-04-14T20:47:49.672Z,87.25
2019-04-14T20:50:16.489Z,87.09
2019-04-14T20:52:43.283Z,87.37
2019-04-14T20:55:10.075Z,87.37
2019-04-14T20:57:36.864Z,87.12
2019-04-14T21:00:06.628Z,87.46
2019-04-14T21:02:45.363Z,87.89
2019-04-14T21:05:26.783Z,87.93
2019-04-14T21:08:15.772Z,87.76
2019-04-14T21:10:55.508Z,87.45
2019-04-14T21:13:41.820Z,87.45
2019-04-14T21:16:13.307Z,87.53
2019-04-14T21:18:45.940Z,87.90
2019-04-14T21:21:25.974Z,88.19
2019-04-14T21:24:09.424Z,88.56
2019-04-14T21:26:49.985Z,88.37
2019-04-14T21:29:33.516Z,88.36
2019-04-14T21:32:31.645Z,88.28
2019-04-14T21:35:03.672Z,88.06
2019-04-14T21:37:56.330Z,88.06
2019-04-14T21:40:32.176Z,88.37
2019-04-14T21:42:59.054Z,88.16
2019-04-14T21:45:26.280Z,88.16
2019-04-14T21:47:53.132Z,88.49
2019-04-14T21:50:19.936Z,88.52
2019-04-14T21:52:49.481Z,88.32
2019-04-14T21:55:15.718Z,88.31
2019-04-14T21:58:13.964Z,88.42
2019-04-14T22:01:41.050Z,88.53
2019-04-14T22:04:33.326Z,88.51
2019-04-14T22:07:11.839Z,88.00
2019-04-14T22:09:38.725Z,88.29
2019-04-14T22:12:06.039Z,88.25
2019-04-14T22:14:32.727Z,88.09
2019-04-14T22:16:59.501Z,88.16
2019-04-14T22:19:26.101Z,88.06
2019-04-14T22:21:52.880Z,87.85
2019-04-14T22:24:19.584Z,88.27
2019-04-14T22:26:46.285Z,88.27
2019-04-14T22:29:13.105Z,88.00
2019-04-14T22:31:39.887Z,87.79
2019-04-14T22:34:06.482Z,87.79
2019-04-14T22:36:33.079Z,87.90
2019-04-14T22:38:59.860Z,88.07
2019-04-14T22:41:26.565Z,88.24
2019-04-14T22:43:53.360Z,88.31
2019-04-14T22:46:20.134Z,88.53
2019-04-14T22:48:46.831Z,88.73
2019-04-14T22:51:14.959Z,88.86
2019-04-14T22:53:41.794Z,89.01
2019-04-14T22:56:08.480Z,89.24
2019-04-14T22:58:35.167Z,89.43
2019-04-14T23:01:12.563Z,89.13
2019-04-14T23:03:48.195Z,88.84
2019-04-14T23:06:40.285Z,88.85
2019-04-14T23:09:19.485Z,88.57
2019-04-14T23:12:11.762Z,88.62
2019-04-14T23:14:58.109Z,88.58
2019-04-14T23:17:35.537Z,88.35
2019-04-14T23:20:12.945Z,88.27
2019-04-14T23:22:57.963Z,88.53
2019-04-14T23:25:24.565Z,88.75
2019-04-14T23:27:51.358Z,88.82
2019-04-14T23:30:18.138Z,88.93
2019-04-14T23:32:44.918Z,89.13
2019-04-14T23:35:11.888Z,89.19
2019-04-14T23:37:38.768Z,89.24
2019-04-14T23:40:05.910Z,89.37
2019-04-14T23:42:32.594Z,89.49
2019-04-14T23:44:59.166Z,89.46
2019-04-14T23:47:25.876Z,89.06
2019-04-14T23:49:52.562Z,88.84
2019-04-14T23:52:19.375Z,88.75
2019-04-14T23:54:46.201Z,88.91
2019-04-14T23:57:12.983Z,88.84
2019-04-14T23:59:39.681Z,89.00
